Terminal Aerodrome Forecast
Issued by NWS Lake Charles, LA

Home | Current Version | Previous Version | Text Only | Print | Product List | Glossary On
Versions: 1 2 3 4 5 6 7 8 9 10 11 12
000
FTUS44 KLCH 041125
TAFARA
TAF
KARA 041125Z 0412/0512 VRB03KT P6SM BKN250
      TEMPO 0412/0413 5SM BR
     FM041800 20009KT P6SM VCTS SCT050CB
     FM050200 VRB03KT P6SM SCT200=

USA.gov is the U.S. government's official web portal to all federal, state and local government web resources and services.